sensor_id;sensor_type;location;lat;lon;timestamp;P1;durP1;ratioP1;P2;durP2;ratioP2
68995;SDS011;56056;48.990;12.146;2023-04-06T00:01:09;27.70;;;25.77;;
68995;SDS011;56056;48.990;12.146;2023-04-06T00:03:35;9.25;;;8.40;;
68995;SDS011;56056;48.990;12.146;2023-04-06T00:06:01;28.48;;;26.55;;
68995;SDS011;56056;48.990;12.146;2023-04-06T00:08:28;23.50;;;21.77;;
68995;SDS011;56056;48.990;12.146;2023-04-06T00:10:54;25.13;;;23.70;;
68995;SDS011;56056;48.990;12.146;2023-04-06T00:13:20;6.25;;;5.75;;
68995;SDS011;56056;48.990;12.146;2023-04-06T00:15:45;19.63;;;18.03;;
68995;SDS011;56056;48.990;12.146;2023-04-06T00:18:11;26.87;;;25.07;;
68995;SDS011;56056;48.990;12.146;2023-04-06T00:20:37;19.85;;;18.42;;
68995;SDS011;56056;48.990;12.146;2023-04-06T00:23:03;27.42;;;25.30;;
68995;SDS011;56056;48.990;12.146;2023-04-06T00:25:30;20.03;;;18.67;;
68995;SDS011;56056;48.990;12.146;2023-04-06T00:27:55;10.03;;;9.37;;
68995;SDS011;56056;48.990;12.146;2023-04-06T00:30:21;31.50;;;29.08;;
68995;SDS011;56056;48.990;12.146;2023-04-06T00:32:47;14.10;;;12.73;;
68995;SDS011;56056;48.990;12.146;2023-04-06T00:35:13;12.53;;;11.67;;
68995;SDS011;56056;48.990;12.146;2023-04-06T00:37:40;24.07;;;22.67;;
68995;SDS011;56056;48.990;12.146;2023-04-06T00:40:06;12.88;;;11.10;;
68995;SDS011;56056;48.990;12.146;2023-04-06T00:42:34;13.75;;;12.20;;
68995;SDS011;56056;48.990;12.146;2023-04-06T00:45:00;15.03;;;13.93;;
68995;SDS011;56056;48.990;12.146;2023-04-06T00:47:26;22.70;;;21.00;;
68995;SDS011;56056;48.990;12.146;2023-04-06T00:49:52;32.73;;;30.73;;
68995;SDS011;56056;48.990;12.146;2023-04-06T00:52:18;16.88;;;15.70;;
68995;SDS011;56056;48.990;12.146;2023-04-06T00:54:44;29.85;;;28.00;;
68995;SDS011;56056;48.990;12.146;2023-04-06T00:57:10;23.83;;;22.27;;
68995;SDS011;56056;48.990;12.146;2023-04-06T00:59:37;12.32;;;11.13;;
68995;SDS011;56056;48.990;12.146;2023-04-06T01:02:03;23.98;;;22.48;;
68995;SDS011;56056;48.990;12.146;2023-04-06T01:04:29;36.00;;;34.10;;
68995;SDS011;56056;48.990;12.146;2023-04-06T01:06:55;10.07;;;9.48;;
68995;SDS011;56056;48.990;12.146;2023-04-06T01:09:22;30.70;;;28.90;;
68995;SDS011;56056;48.990;12.146;2023-04-06T01:11:47;17.27;;;16.00;;
68995;SDS011;56056;48.990;12.146;2023-04-06T01:14:13;29.27;;;27.40;;
68995;SDS011;56056;48.990;12.146;2023-04-06T01:16:41;9.73;;;9.07;;
68995;SDS011;56056;48.990;12.146;2023-04-06T01:19:07;15.80;;;14.47;;
68995;SDS011;56056;48.990;12.146;2023-04-06T01:21:33;34.03;;;31.90;;
68995;SDS011;56056;48.990;12.146;2023-04-06T01:24:00;10.60;;;9.67;;
68995;SDS011;56056;48.990;12.146;2023-04-06T01:26:26;15.70;;;12.32;;
68995;SDS011;56056;48.990;12.146;2023-04-06T01:28:54;41.00;;;38.72;;
68995;SDS011;56056;48.990;12.146;2023-04-06T01:31:20;15.02;;;13.85;;
68995;SDS011;56056;48.990;12.146;2023-04-06T01:33:45;33.93;;;31.33;;
68995;SDS011;56056;48.990;12.146;2023-04-06T01:36:11;10.38;;;9.73;;
68995;SDS011;56056;48.990;12.146;2023-04-06T01:38:37;13.03;;;12.10;;
68995;SDS011;56056;48.990;12.146;2023-04-06T01:41:04;17.40;;;13.13;;
68995;SDS011;56056;48.990;12.146;2023-04-06T01:43:30;35.43;;;33.13;;
68995;SDS011;56056;48.990;12.146;2023-04-06T01:45:56;16.17;;;15.00;;
68995;SDS011;56056;48.990;12.146;2023-04-06T01:48:21;9.53;;;8.77;;
68995;SDS011;56056;48.990;12.146;2023-04-06T01:50:47;47.10;;;44.00;;
68995;SDS011;56056;48.990;12.146;2023-04-06T01:53:13;29.58;;;27.73;;
68995;SDS011;56056;48.990;12.146;2023-04-06T01:55:40;10.33;;;9.67;;
68995;SDS011;56056;48.990;12.146;2023-04-06T01:58:07;9.93;;;9.33;;
68995;SDS011;56056;48.990;12.146;2023-04-06T02:00:33;37.03;;;34.50;;
68995;SDS011;56056;48.990;12.146;2023-04-06T02:02:59;10.10;;;9.23;;
68995;SDS011;56056;48.990;12.146;2023-04-06T02:05:25;36.60;;;34.37;;
68995;SDS011;56056;48.990;12.146;2023-04-06T02:07:51;33.17;;;30.98;;
68995;SDS011;56056;48.990;12.146;2023-04-06T02:10:17;16.17;;;14.97;;
68995;SDS011;56056;48.990;12.146;2023-04-06T02:12:43;13.33;;;12.37;;
68995;SDS011;56056;48.990;12.146;2023-04-06T02:15:10;15.50;;;14.17;;
68995;SDS011;56056;48.990;12.146;2023-04-06T02:17:38;19.80;;;18.43;;
68995;SDS011;56056;48.990;12.146;2023-04-06T02:20:04;45.05;;;42.17;;
68995;SDS011;56056;48.990;12.146;2023-04-06T02:22:31;36.13;;;34.03;;
68995;SDS011;56056;48.990;12.146;2023-04-06T02:24:56;10.40;;;9.80;;
68995;SDS011;56056;48.990;12.146;2023-04-06T02:27:22;49.63;;;46.27;;
68995;SDS011;56056;48.990;12.146;2023-04-06T02:29:48;34.03;;;31.77;;
68995;SDS011;56056;48.990;12.146;2023-04-06T02:32:15;48.73;;;45.70;;
68995;SDS011;56056;48.990;12.146;2023-04-06T02:34:41;47.23;;;43.83;;
68995;SDS011;56056;48.990;12.146;2023-04-06T02:37:06;15.23;;;13.20;;
68995;SDS011;56056;48.990;12.146;2023-04-06T02:39:32;17.43;;;16.37;;
68995;SDS011;56056;48.990;12.146;2023-04-06T02:41:58;15.77;;;14.57;;
68995;SDS011;56056;48.990;12.146;2023-04-06T02:44:23;49.73;;;46.77;;
68995;SDS011;56056;48.990;12.146;2023-04-06T02:46:49;15.40;;;14.20;;
68995;SDS011;56056;48.990;12.146;2023-04-06T02:49:17;50.50;;;47.40;;
68995;SDS011;56056;48.990;12.146;2023-04-06T02:51:42;10.10;;;9.57;;
68995;SDS011;56056;48.990;12.146;2023-04-06T02:54:08;16.33;;;15.23;;
68995;SDS011;56056;48.990;12.146;2023-04-06T02:56:34;31.90;;;29.80;;
68995;SDS011;56056;48.990;12.146;2023-04-06T02:59:00;32.27;;;30.23;;
68995;SDS011;56056;48.990;12.146;2023-04-06T03:01:26;45.43;;;42.57;;
68995;SDS011;56056;48.990;12.146;2023-04-06T03:03:51;44.17;;;41.67;;
68995;SDS011;56056;48.990;12.146;2023-04-06T03:06:19;21.57;;;19.97;;
68995;SDS011;56056;48.990;12.146;2023-04-06T03:08:44;22.97;;;21.37;;
68995;SDS011;56056;48.990;12.146;2023-04-06T03:11:10;63.13;;;59.63;;
68995;SDS011;56056;48.990;12.146;2023-04-06T03:13:36;44.83;;;42.10;;
68995;SDS011;56056;48.990;12.146;2023-04-06T03:16:03;21.83;;;20.33;;
68995;SDS011;56056;48.990;12.146;2023-04-06T03:18:29;11.55;;;10.90;;
68995;SDS011;56056;48.990;12.146;2023-04-06T03:20:55;42.28;;;39.80;;
68995;SDS011;56056;48.990;12.146;2023-04-06T03:23:22;32.27;;;29.67;;
68995;SDS011;56056;48.990;12.146;2023-04-06T03:25:48;46.95;;;43.92;;
68995;SDS011;56056;48.990;12.146;2023-04-06T03:28:14;54.97;;;51.27;;
68995;SDS011;56056;48.990;12.146;2023-04-06T03:30:41;19.53;;;18.53;;
68995;SDS011;56056;48.990;12.146;2023-04-06T03:33:06;15.63;;;14.47;;
68995;SDS011;56056;48.990;12.146;2023-04-06T03:35:32;15.80;;;14.50;;
68995;SDS011;56056;48.990;12.146;2023-04-06T03:37:58;38.50;;;36.30;;
68995;SDS011;56056;48.990;12.146;2023-04-06T03:40:25;55.43;;;51.83;;
68995;SDS011;56056;48.990;12.146;2023-04-06T03:42:51;16.27;;;15.40;;
68995;SDS011;56056;48.990;12.146;2023-04-06T03:45:16;44.53;;;41.90;;
68995;SDS011;56056;48.990;12.146;2023-04-06T03:47:43;21.47;;;19.40;;
68995;SDS011;56056;48.990;12.146;2023-04-06T03:50:09;16.27;;;15.50;;
68995;SDS011;56056;48.990;12.146;2023-04-06T03:52:35;37.77;;;35.43;;
68995;SDS011;56056;48.990;12.146;2023-04-06T03:55:01;22.17;;;20.57;;
68995;SDS011;56056;48.990;12.146;2023-04-06T03:57:28;10.13;;;9.53;;
68995;SDS011;56056;48.990;12.146;2023-04-06T03:59:54;42.87;;;40.40;;
68995;SDS011;56056;48.990;12.146;2023-04-06T04:02:20;12.87;;;12.20;;
68995;SDS011;56056;48.990;12.146;2023-04-06T04:04:45;7.20;;;6.90;;
68995;SDS011;56056;48.990;12.146;2023-04-06T04:07:11;9.00;;;8.57;;
68995;SDS011;56056;48.990;12.146;2023-04-06T04:09:37;13.33;;;12.57;;
68995;SDS011;56056;48.990;12.146;2023-04-06T04:12:03;43.27;;;40.40;;
68995;SDS011;56056;48.990;12.146;2023-04-06T04:14:30;14.30;;;13.13;;
68995;SDS011;56056;48.990;12.146;2023-04-06T04:16:56;36.30;;;34.07;;
68995;SDS011;56056;48.990;12.146;2023-04-06T04:19:21;46.47;;;43.57;;
68995;SDS011;56056;48.990;12.146;2023-04-06T04:21:47;7.43;;;6.37;;
68995;SDS011;56056;48.990;12.146;2023-04-06T04:24:13;54.80;;;51.33;;
68995;SDS011;56056;48.990;12.146;2023-04-06T04:26:39;14.37;;;13.43;;
68995;SDS011;56056;48.990;12.146;2023-04-06T04:29:05;15.13;;;14.17;;
68995;SDS011;56056;48.990;12.146;2023-04-06T04:31:32;42.07;;;39.73;;
68995;SDS011;56056;48.990;12.146;2023-04-06T04:33:59;12.70;;;11.95;;
68995;SDS011;56056;48.990;12.146;2023-04-06T04:36:25;28.23;;;26.20;;
68995;SDS011;56056;48.990;12.146;2023-04-06T04:38:51;46.97;;;43.63;;
68995;SDS011;56056;48.990;12.146;2023-04-06T04:41:17;10.20;;;9.57;;
68995;SDS011;56056;48.990;12.146;2023-04-06T04:43:43;39.65;;;37.25;;
68995;SDS011;56056;48.990;12.146;2023-04-06T04:46:08;34.00;;;31.73;;
68995;SDS011;56056;48.990;12.146;2023-04-06T04:48:35;15.23;;;14.37;;
68995;SDS011;56056;48.990;12.146;2023-04-06T04:51:01;48.20;;;44.97;;
68995;SDS011;56056;48.990;12.146;2023-04-06T04:53:28;18.87;;;17.57;;
68995;SDS011;56056;48.990;12.146;2023-04-06T04:55:54;12.87;;;12.07;;
68995;SDS011;56056;48.990;12.146;2023-04-06T04:58:20;37.92;;;35.65;;
68995;SDS011;56056;48.990;12.146;2023-04-06T05:00:46;13.47;;;12.63;;
68995;SDS011;56056;48.990;12.146;2023-04-06T05:03:14;49.17;;;46.47;;
68995;SDS011;56056;48.990;12.146;2023-04-06T05:05:42;45.37;;;42.63;;
68995;SDS011;56056;48.990;12.146;2023-04-06T05:08:08;12.27;;;11.57;;
68995;SDS011;56056;48.990;12.146;2023-04-06T05:10:34;35.90;;;33.80;;
68995;SDS011;56056;48.990;12.146;2023-04-06T05:13:00;15.23;;;14.40;;
68995;SDS011;56056;48.990;12.146;2023-04-06T05:15:26;43.10;;;40.60;;
68995;SDS011;56056;48.990;12.146;2023-04-06T05:17:51;34.43;;;32.27;;
68995;SDS011;56056;48.990;12.146;2023-04-06T05:20:17;37.77;;;35.33;;
68995;SDS011;56056;48.990;12.146;2023-04-06T05:22:44;10.00;;;9.43;;
68995;SDS011;56056;48.990;12.146;2023-04-06T05:25:10;12.47;;;11.67;;
68995;SDS011;56056;48.990;12.146;2023-04-06T05:27:36;39.10;;;37.00;;
68995;SDS011;56056;48.990;12.146;2023-04-06T05:30:01;9.05;;;8.57;;
68995;SDS011;56056;48.990;12.146;2023-04-06T05:32:27;11.48;;;10.73;;
68995;SDS011;56056;48.990;12.146;2023-04-06T05:34:53;9.52;;;8.98;;
68995;SDS011;56056;48.990;12.146;2023-04-06T05:37:19;12.73;;;11.97;;
68995;SDS011;56056;48.990;12.146;2023-04-06T05:39:46;9.73;;;9.07;;
68995;SDS011;56056;48.990;12.146;2023-04-06T05:42:12;41.70;;;38.95;;
68995;SDS011;56056;48.990;12.146;2023-04-06T05:44:38;11.10;;;10.43;;
68995;SDS011;56056;48.990;12.146;2023-04-06T05:47:03;10.13;;;9.23;;
68995;SDS011;56056;48.990;12.146;2023-04-06T05:49:29;15.57;;;13.20;;
68995;SDS011;56056;48.990;12.146;2023-04-06T05:51:55;35.20;;;32.60;;
68995;SDS011;56056;48.990;12.146;2023-04-06T05:54:21;35.80;;;33.13;;
68995;SDS011;56056;48.990;12.146;2023-04-06T05:56:48;12.70;;;11.82;;
68995;SDS011;56056;48.990;12.146;2023-04-06T05:59:13;12.32;;;11.13;;
68995;SDS011;56056;48.990;12.146;2023-04-06T06:01:40;12.13;;;11.10;;
68995;SDS011;56056;48.990;12.146;2023-04-06T06:04:06;11.80;;;10.73;;
68995;SDS011;56056;48.990;12.146;2023-04-06T06:06:32;74.38;;;68.80;;
68995;SDS011;56056;48.990;12.146;2023-04-06T06:08:57;5.40;;;5.00;;
68995;SDS011;56056;48.990;12.146;2023-04-06T06:11:28;31.77;;;29.50;;
68995;SDS011;56056;48.990;12.146;2023-04-06T06:13:56;9.17;;;8.53;;
68995;SDS011;56056;48.990;12.146;2023-04-06T06:16:21;14.93;;;13.75;;
68995;SDS011;56056;48.990;12.146;2023-04-06T06:18:47;12.90;;;11.93;;
68995;SDS011;56056;48.990;12.146;2023-04-06T06:21:13;10.35;;;8.07;;
68995;SDS011;56056;48.990;12.146;2023-04-06T06:23:41;23.52;;;21.88;;
68995;SDS011;56056;48.990;12.146;2023-04-06T06:26:07;9.10;;;8.57;;
68995;SDS011;56056;48.990;12.146;2023-04-06T06:28:33;7.32;;;6.60;;
68995;SDS011;56056;48.990;12.146;2023-04-06T06:31:00;8.38;;;7.72;;
68995;SDS011;56056;48.990;12.146;2023-04-06T06:33:26;4.82;;;4.53;;
68995;SDS011;56056;48.990;12.146;2023-04-06T06:35:53;15.13;;;13.73;;
68995;SDS011;56056;48.990;12.146;2023-04-06T06:38:19;3.65;;;3.45;;
68995;SDS011;56056;48.990;12.146;2023-04-06T06:40:45;8.93;;;8.20;;
68995;SDS011;56056;48.990;12.146;2023-04-06T06:43:11;184.75;;;176.32;;
68995;SDS011;56056;48.990;12.146;2023-04-06T06:45:37;114.60;;;109.20;;
68995;SDS011;56056;48.990;12.146;2023-04-06T06:48:04;260.42;;;246.98;;
68995;SDS011;56056;48.990;12.146;2023-04-06T06:50:30;548.70;;;516.28;;
68995;SDS011;56056;48.990;12.146;2023-04-06T06:52:56;909.33;;;843.65;;
68995;SDS011;56056;48.990;12.146;2023-04-06T06:55:21;926.00;;;854.20;;
68995;SDS011;56056;48.990;12.146;2023-04-06T06:57:47;1068.15;;;975.28;;
68995;SDS011;56056;48.990;12.146;2023-04-06T07:00:13;1165.65;;;999.90;;
68995;SDS011;56056;48.990;12.146;2023-04-06T07:02:39;1169.07;;;999.90;;
68995;SDS011;56056;48.990;12.146;2023-04-06T07:05:07;1234.78;;;999.90;;
68995;SDS011;56056;48.990;12.146;2023-04-06T07:07:33;1187.50;;;999.90;;
68995;SDS011;56056;48.990;12.146;2023-04-06T07:09:58;1253.28;;;999.90;;
68995;SDS011;56056;48.990;12.146;2023-04-06T07:12:24;1207.95;;;999.90;;
68995;SDS011;56056;48.990;12.146;2023-04-06T07:14:50;1165.22;;;999.90;;
68995;SDS011;56056;48.990;12.146;2023-04-06T07:17:16;1100.18;;;992.05;;
68995;SDS011;56056;48.990;12.146;2023-04-06T07:19:42;1030.07;;;954.40;;
68995;SDS011;56056;48.990;12.146;2023-04-06T07:22:09;1005.22;;;927.47;;
68995;SDS011;56056;48.990;12.146;2023-04-06T07:24:35;993.55;;;916.42;;
68995;SDS011;56056;48.990;12.146;2023-04-06T07:27:00;975.63;;;900.60;;
68995;SDS011;56056;48.990;12.146;2023-04-06T07:29:26;909.53;;;840.55;;
68995;SDS011;56056;48.990;12.146;2023-04-06T07:31:52;904.90;;;832.95;;
68995;SDS011;56056;48.990;12.146;2023-04-06T07:34:18;915.30;;;840.13;;
68995;SDS011;56056;48.990;12.146;2023-04-06T07:36:44;980.78;;;896.45;;
68995;SDS011;56056;48.990;12.146;2023-04-06T07:39:11;929.28;;;848.90;;
68995;SDS011;56056;48.990;12.146;2023-04-06T07:41:37;1046.78;;;952.03;;
68995;SDS011;56056;48.990;12.146;2023-04-06T07:44:03;952.67;;;863.80;;
68995;SDS011;56056;48.990;12.146;2023-04-06T07:46:29;1006.78;;;916.55;;
68995;SDS011;56056;48.990;12.146;2023-04-06T07:48:55;1162.65;;;999.90;;
68995;SDS011;56056;48.990;12.146;2023-04-06T07:51:22;1024.63;;;928.88;;
68995;SDS011;56056;48.990;12.146;2023-04-06T07:53:47;1026.10;;;936.83;;
68995;SDS011;56056;48.990;12.146;2023-04-06T07:56:14;1007.33;;;906.97;;
68995;SDS011;56056;48.990;12.146;2023-04-06T07:58:40;1094.75;;;980.97;;
68995;SDS011;56056;48.990;12.146;2023-04-06T08:01:06;1419.80;;;999.90;;
68995;SDS011;56056;48.990;12.146;2023-04-06T08:03:33;1199.55;;;996.10;;
68995;SDS011;56056;48.990;12.146;2023-04-06T08:05:58;1364.95;;;999.90;;
68995;SDS011;56056;48.990;12.146;2023-04-06T08:08:24;1359.13;;;999.90;;
68995;SDS011;56056;48.990;12.146;2023-04-06T08:10:50;1686.88;;;999.90;;
68995;SDS011;56056;48.990;12.146;2023-04-06T08:13:17;1296.97;;;999.90;;
68995;SDS011;56056;48.990;12.146;2023-04-06T08:15:43;1263.35;;;999.90;;
68995;SDS011;56056;48.990;12.146;2023-04-06T08:18:08;1765.20;;;999.90;;
68995;SDS011;56056;48.990;12.146;2023-04-06T08:20:34;1247.15;;;999.90;;
68995;SDS011;56056;48.990;12.146;2023-04-06T08:23:00;1279.38;;;999.90;;
68995;SDS011;56056;48.990;12.146;2023-04-06T08:25:26;1241.13;;;999.90;;
68995;SDS011;56056;48.990;12.146;2023-04-06T08:27:51;1354.05;;;999.90;;
68995;SDS011;56056;48.990;12.146;2023-04-06T08:30:18;1218.18;;;999.90;;
68995;SDS011;56056;48.990;12.146;2023-04-06T08:32:44;1301.60;;;999.90;;
68995;SDS011;56056;48.990;12.146;2023-04-06T08:35:10;1518.60;;;999.90;;
68995;SDS011;56056;48.990;12.146;2023-04-06T08:37:37;1212.93;;;999.90;;
68995;SDS011;56056;48.990;12.146;2023-04-06T08:40:02;1682.95;;;999.90;;
68995;SDS011;56056;48.990;12.146;2023-04-06T08:42:31;1476.40;;;999.90;;
68995;SDS011;56056;48.990;12.146;2023-04-06T08:44:58;1293.05;;;999.90;;
68995;SDS011;56056;48.990;12.146;2023-04-06T08:47:26;1450.00;;;999.90;;
68995;SDS011;56056;48.990;12.146;2023-04-06T08:49:52;1245.80;;;999.90;;
68995;SDS011;56056;48.990;12.146;2023-04-06T08:52:19;1216.65;;;999.90;;
68995;SDS011;56056;48.990;12.146;2023-04-06T08:54:45;1509.30;;;999.90;;
68995;SDS011;56056;48.990;12.146;2023-04-06T08:57:10;1687.50;;;999.90;;
68995;SDS011;56056;48.990;12.146;2023-04-06T08:59:37;1333.80;;;999.90;;
68995;SDS011;56056;48.990;12.146;2023-04-06T09:02:03;1494.45;;;999.90;;
68995;SDS011;56056;48.990;12.146;2023-04-06T09:04:31;1200.93;;;999.90;;
68995;SDS011;56056;48.990;12.146;2023-04-06T09:06:58;1352.03;;;999.90;;
68995;SDS011;56056;48.990;12.146;2023-04-06T09:09:25;1517.70;;;999.90;;
68995;SDS011;56056;48.990;12.146;2023-04-06T09:11:51;1677.65;;;999.90;;
68995;SDS011;56056;48.990;12.146;2023-04-06T09:14:32;1542.20;;;999.90;;
68995;SDS011;56056;48.990;12.146;2023-04-06T09:16:58;1193.47;;;999.90;;
68995;SDS011;56056;48.990;12.146;2023-04-06T09:19:24;1066.20;;;956.42;;
68995;SDS011;56056;48.990;12.146;2023-04-06T09:22:00;1142.40;;;999.90;;
68995;SDS011;56056;48.990;12.146;2023-04-06T09:24:26;1135.90;;;999.90;;
68995;SDS011;56056;48.990;12.146;2023-04-06T09:26:52;1145.32;;;999.90;;
68995;SDS011;56056;48.990;12.146;2023-04-06T09:29:22;1426.78;;;999.90;;
68995;SDS011;56056;48.990;12.146;2023-04-06T09:31:48;1434.35;;;999.90;;
68995;SDS011;56056;48.990;12.146;2023-04-06T09:34:20;1350.03;;;999.90;;
68995;SDS011;56056;48.990;12.146;2023-04-06T09:36:46;1347.57;;;999.90;;
68995;SDS011;56056;48.990;12.146;2023-04-06T09:39:13;1683.07;;;999.90;;
68995;SDS011;56056;48.990;12.146;2023-04-06T09:41:38;1655.70;;;999.90;;
68995;SDS011;56056;48.990;12.146;2023-04-06T09:44:05;1671.72;;;999.90;;
68995;SDS011;56056;48.990;12.146;2023-04-06T09:46:32;1414.22;;;999.90;;
68995;SDS011;56056;48.990;12.146;2023-04-06T09:48:59;1603.93;;;999.90;;
68995;SDS011;56056;48.990;12.146;2023-04-06T09:51:26;1445.85;;;999.90;;
68995;SDS011;56056;48.990;12.146;2023-04-06T09:53:53;1702.05;;;999.90;;
68995;SDS011;56056;48.990;12.146;2023-04-06T09:56:22;1579.43;;;999.90;;
68995;SDS011;56056;48.990;12.146;2023-04-06T09:58:51;1583.13;;;999.90;;
68995;SDS011;56056;48.990;12.146;2023-04-06T10:01:22;1404.43;;;999.90;;
68995;SDS011;56056;48.990;12.146;2023-04-06T10:03:52;1655.20;;;999.90;;
68995;SDS011;56056;48.990;12.146;2023-04-06T10:06:22;1027.72;;;924.67;;
68995;SDS011;56056;48.990;12.146;2023-04-06T10:08:49;1585.70;;;999.90;;
68995;SDS011;56056;48.990;12.146;2023-04-06T10:11:15;1553.03;;;999.90;;
68995;SDS011;56056;48.990;12.146;2023-04-06T10:13:42;1476.50;;;999.90;;
68995;SDS011;56056;48.990;12.146;2023-04-06T10:16:09;1721.25;;;999.90;;
68995;SDS011;56056;48.990;12.146;2023-04-06T10:18:35;1523.45;;;999.90;;
68995;SDS011;56056;48.990;12.146;2023-04-06T10:21:04;1770.88;;;999.90;;
68995;SDS011;56056;48.990;12.146;2023-04-06T10:23:32;1586.70;;;999.90;;
68995;SDS011;56056;48.990;12.146;2023-04-06T10:26:00;1394.97;;;999.90;;
68995;SDS011;56056;48.990;12.146;2023-04-06T10:28:30;1059.78;;;967.58;;
68995;SDS011;56056;48.990;12.146;2023-04-06T10:30:58;1141.22;;;998.92;;
68995;SDS011;56056;48.990;12.146;2023-04-06T10:33:26;1033.55;;;928.28;;
68995;SDS011;56056;48.990;12.146;2023-04-06T10:35:52;1312.18;;;999.90;;
68995;SDS011;56056;48.990;12.146;2023-04-06T10:38:19;1199.00;;;998.10;;
68995;SDS011;56056;48.990;12.146;2023-04-06T10:40:49;1145.05;;;999.90;;
68995;SDS011;56056;48.990;12.146;2023-04-06T10:43:18;1253.15;;;999.90;;
68995;SDS011;56056;48.990;12.146;2023-04-06T10:45:44;1371.68;;;999.90;;
68995;SDS011;56056;48.990;12.146;2023-04-06T10:48:14;1429.65;;;999.90;;
68995;SDS011;56056;48.990;12.146;2023-04-06T10:50:41;1843.40;;;999.90;;
68995;SDS011;56056;48.990;12.146;2023-04-06T10:53:06;1962.05;;;999.90;;
68995;SDS011;56056;48.990;12.146;2023-04-06T10:55:33;1999.90;;;999.90;;
68995;SDS011;56056;48.990;12.146;2023-04-06T10:57:59;1889.60;;;999.90;;
68995;SDS011;56056;48.990;12.146;2023-04-06T11:00:25;1690.28;;;999.90;;
68995;SDS011;56056;48.990;12.146;2023-04-06T11:02:51;1324.35;;;999.90;;
68995;SDS011;56056;48.990;12.146;2023-04-06T11:05:25;1623.85;;;999.90;;
68995;SDS011;56056;48.990;12.146;2023-04-06T11:07:51;1400.78;;;999.90;;
68995;SDS011;56056;48.990;12.146;2023-04-06T11:10:20;1579.35;;;999.90;;
68995;SDS011;56056;48.990;12.146;2023-04-06T11:12:51;1397.65;;;999.90;;
68995;SDS011;56056;48.990;12.146;2023-04-06T11:15:18;1344.25;;;999.90;;
68995;SDS011;56056;48.990;12.146;2023-04-06T11:17:44;1438.25;;;999.90;;
68995;SDS011;56056;48.990;12.146;2023-04-06T11:20:11;1390.22;;;999.90;;
68995;SDS011;56056;48.990;12.146;2023-04-06T11:22:47;1604.88;;;999.90;;
68995;SDS011;56056;48.990;12.146;2023-04-06T11:25:13;1420.45;;;999.90;;
68995;SDS011;56056;48.990;12.146;2023-04-06T11:27:39;1419.55;;;999.90;;
68995;SDS011;56056;48.990;12.146;2023-04-06T11:30:05;1430.90;;;999.90;;
68995;SDS011;56056;48.990;12.146;2023-04-06T11:32:38;1430.25;;;999.90;;
68995;SDS011;56056;48.990;12.146;2023-04-06T11:35:06;1356.03;;;999.90;;
68995;SDS011;56056;48.990;12.146;2023-04-06T11:37:32;1428.72;;;999.90;;
68995;SDS011;56056;48.990;12.146;2023-04-06T11:39:59;1525.63;;;999.90;;
68995;SDS011;56056;48.990;12.146;2023-04-06T11:42:26;1555.28;;;999.90;;
68995;SDS011;56056;48.990;12.146;2023-04-06T11:44:53;1619.05;;;999.90;;
68995;SDS011;56056;48.990;12.146;2023-04-06T11:47:19;1467.35;;;999.90;;
68995;SDS011;56056;48.990;12.146;2023-04-06T11:49:47;1483.25;;;999.90;;
68995;SDS011;56056;48.990;12.146;2023-04-06T11:52:14;1533.88;;;999.90;;
68995;SDS011;56056;48.990;12.146;2023-04-06T11:54:40;1625.53;;;999.90;;
68995;SDS011;56056;48.990;12.146;2023-04-06T11:57:08;1614.15;;;999.90;;
68995;SDS011;56056;48.990;12.146;2023-04-06T11:59:34;1476.88;;;999.90;;
68995;SDS011;56056;48.990;12.146;2023-04-06T12:02:00;1560.93;;;999.90;;
68995;SDS011;56056;48.990;12.146;2023-04-06T12:04:26;1538.05;;;999.90;;
68995;SDS011;56056;48.990;12.146;2023-04-06T12:06:52;1526.05;;;999.90;;
68995;SDS011;56056;48.990;12.146;2023-04-06T12:09:18;1504.70;;;999.90;;
68995;SDS011;56056;48.990;12.146;2023-04-06T12:11:44;1388.20;;;999.90;;
68995;SDS011;56056;48.990;12.146;2023-04-06T12:14:11;1412.22;;;999.90;;
68995;SDS011;56056;48.990;12.146;2023-04-06T12:16:37;1325.20;;;999.90;;
68995;SDS011;56056;48.990;12.146;2023-04-06T12:19:03;1519.95;;;999.90;;
68995;SDS011;56056;48.990;12.146;2023-04-06T12:21:30;1313.82;;;999.90;;
68995;SDS011;56056;48.990;12.146;2023-04-06T12:23:56;1240.63;;;999.90;;
68995;SDS011;56056;48.990;12.146;2023-04-06T12:26:22;1198.22;;;999.90;;
68995;SDS011;56056;48.990;12.146;2023-04-06T12:28:48;1194.13;;;999.90;;
68995;SDS011;56056;48.990;12.146;2023-04-06T12:31:15;1458.45;;;999.90;;
68995;SDS011;56056;48.990;12.146;2023-04-06T12:33:41;1307.18;;;999.90;;
68995;SDS011;56056;48.990;12.146;2023-04-06T12:36:11;1259.85;;;999.90;;
68995;SDS011;56056;48.990;12.146;2023-04-06T12:38:37;1246.30;;;999.90;;
68995;SDS011;56056;48.990;12.146;2023-04-06T12:41:04;1217.80;;;999.90;;
68995;SDS011;56056;48.990;12.146;2023-04-06T12:43:30;1224.13;;;999.90;;
68995;SDS011;56056;48.990;12.146;2023-04-06T12:45:56;1193.18;;;999.90;;
68995;SDS011;56056;48.990;12.146;2023-04-06T12:48:23;1148.65;;;999.90;;
68995;SDS011;56056;48.990;12.146;2023-04-06T12:50:53;1138.45;;;999.90;;
68995;SDS011;56056;48.990;12.146;2023-04-06T12:53:19;1181.13;;;999.90;;
68995;SDS011;56056;48.990;12.146;2023-04-06T12:55:45;1161.95;;;999.90;;
68995;SDS011;56056;48.990;12.146;2023-04-06T12:58:11;1187.65;;;999.90;;
68995;SDS011;56056;48.990;12.146;2023-04-06T13:00:37;1168.43;;;999.90;;
68995;SDS011;56056;48.990;12.146;2023-04-06T13:03:02;1175.25;;;999.90;;
68995;SDS011;56056;48.990;12.146;2023-04-06T13:05:29;1148.63;;;999.90;;
68995;SDS011;56056;48.990;12.146;2023-04-06T13:07:55;1155.60;;;999.90;;
68995;SDS011;56056;48.990;12.146;2023-04-06T13:10:22;1209.95;;;999.90;;
68995;SDS011;56056;48.990;12.146;2023-04-06T13:12:48;1164.68;;;999.90;;
68995;SDS011;56056;48.990;12.146;2023-04-06T13:15:13;1227.32;;;999.90;;
68995;SDS011;56056;48.990;12.146;2023-04-06T13:17:40;1244.88;;;999.90;;
68995;SDS011;56056;48.990;12.146;2023-04-06T13:20:06;1601.45;;;999.90;;
68995;SDS011;56056;48.990;12.146;2023-04-06T13:22:33;1317.32;;;999.90;;
68995;SDS011;56056;48.990;12.146;2023-04-06T13:24:59;1342.90;;;999.90;;
68995;SDS011;56056;48.990;12.146;2023-04-06T13:27:25;1382.38;;;999.90;;
68995;SDS011;56056;48.990;12.146;2023-04-06T13:29:52;1350.43;;;999.90;;
68995;SDS011;56056;48.990;12.146;2023-04-06T13:32:18;1312.43;;;999.90;;
68995;SDS011;56056;48.990;12.146;2023-04-06T13:34:43;1288.28;;;999.90;;
68995;SDS011;56056;48.990;12.146;2023-04-06T13:37:10;1281.28;;;999.90;;
68995;SDS011;56056;48.990;12.146;2023-04-06T13:39:37;1599.82;;;999.90;;
68995;SDS011;56056;48.990;12.146;2023-04-06T13:42:03;1401.03;;;999.90;;
68995;SDS011;56056;48.990;12.146;2023-04-06T13:44:29;1421.95;;;999.90;;
68995;SDS011;56056;48.990;12.146;2023-04-06T13:46:55;1280.80;;;999.90;;